sensor_id;sensor_type;location;lat;lon;timestamp;P1;durP1;ratioP1;P2;durP2;ratioP2
45136;SDS011;30894;51.740;19.498;2022-08-01T00:01:12;0.10;;;0.10;;
45136;SDS011;30894;51.740;19.498;2022-08-01T00:03:38;0.10;;;0.10;;
45136;SDS011;30894;51.740;19.498;2022-08-01T00:06:04;0.10;;;0.10;;
45136;SDS011;30894;51.740;19.498;2022-08-01T00:08:32;0.10;;;0.10;;
45136;SDS011;30894;51.740;19.498;2022-08-01T00:10:57;0.10;;;0.10;;
45136;SDS011;30894;51.740;19.498;2022-08-01T00:13:23;0.10;;;0.10;;
45136;SDS011;30894;51.740;19.498;2022-08-01T00:15:50;0.10;;;0.10;;
45136;SDS011;30894;51.740;19.498;2022-08-01T00:18:16;0.10;;;0.10;;
45136;SDS011;30894;51.740;19.498;2022-08-01T00:20:41;0.10;;;0.10;;
45136;SDS011;30894;51.740;19.498;2022-08-01T00:23:07;0.10;;;0.10;;
45136;SDS011;30894;51.740;19.498;2022-08-01T00:25:34;0.10;;;0.10;;
45136;SDS011;30894;51.740;19.498;2022-08-01T00:27:59;0.00;;;0.00;;
45136;SDS011;30894;51.740;19.498;2022-08-01T00:30:26;0.10;;;0.10;;
45136;SDS011;30894;51.740;19.498;2022-08-01T00:32:52;0.10;;;0.10;;
45136;SDS011;30894;51.740;19.498;2022-08-01T00:35:18;0.10;;;0.10;;
45136;SDS011;30894;51.740;19.498;2022-08-01T00:37:44;0.10;;;0.10;;
45136;SDS011;30894;51.740;19.498;2022-08-01T00:40:10;0.10;;;0.10;;
45136;SDS011;30894;51.740;19.498;2022-08-01T00:42:36;0.10;;;0.10;;
45136;SDS011;30894;51.740;19.498;2022-08-01T00:45:02;0.10;;;0.10;;
45136;SDS011;30894;51.740;19.498;2022-08-01T00:47:29;0.10;;;0.10;;
45136;SDS011;30894;51.740;19.498;2022-08-01T00:49:55;0.10;;;0.10;;
45136;SDS011;30894;51.740;19.498;2022-08-01T00:52:21;0.10;;;0.10;;
45136;SDS011;30894;51.740;19.498;2022-08-01T00:54:47;0.10;;;0.10;;
45136;SDS011;30894;51.740;19.498;2022-08-01T00:57:13;0.10;;;0.10;;
45136;SDS011;30894;51.740;19.498;2022-08-01T00:59:40;0.10;;;0.10;;
45136;SDS011;30894;51.740;19.498;2022-08-01T01:02:06;0.10;;;0.10;;
45136;SDS011;30894;51.740;19.498;2022-08-01T01:04:32;0.10;;;0.10;;
45136;SDS011;30894;51.740;19.498;2022-08-01T01:12:22;0.10;;;0.10;;
45136;SDS011;30894;51.740;19.498;2022-08-01T01:15:22;0.10;;;0.10;;
45136;SDS011;30894;51.740;19.498;2022-08-01T01:18:21;0.10;;;0.10;;
45136;SDS011;30894;51.740;19.498;2022-08-01T01:26:50;0.10;;;0.10;;
45136;SDS011;30894;51.740;19.498;2022-08-01T01:32:06;0.05;;;0.05;;
45136;SDS011;30894;51.740;19.498;2022-08-01T01:34:46;0.10;;;0.10;;
45136;SDS011;30894;51.740;19.498;2022-08-01T01:37:16;0.10;;;0.10;;
45136;SDS011;30894;51.740;19.498;2022-08-01T01:39:44;0.10;;;0.10;;
45136;SDS011;30894;51.740;19.498;2022-08-01T01:42:15;0.10;;;0.10;;
45136;SDS011;30894;51.740;19.498;2022-08-01T01:44:44;0.10;;;0.10;;
45136;SDS011;30894;51.740;19.498;2022-08-01T01:47:12;0.10;;;0.10;;
45136;SDS011;30894;51.740;19.498;2022-08-01T01:49:40;0.10;;;0.10;;
45136;SDS011;30894;51.740;19.498;2022-08-01T01:52:08;0.10;;;0.10;;
45136;SDS011;30894;51.740;19.498;2022-08-01T01:54:37;0.10;;;0.10;;
45136;SDS011;30894;51.740;19.498;2022-08-01T01:57:10;0.00;;;0.00;;
45136;SDS011;30894;51.740;19.498;2022-08-01T01:59:39;0.00;;;0.00;;
45136;SDS011;30894;51.740;19.498;2022-08-01T02:02:06;0.10;;;0.10;;
45136;SDS011;30894;51.740;19.498;2022-08-01T02:04:35;0.10;;;0.10;;
45136;SDS011;30894;51.740;19.498;2022-08-01T02:07:05;0.03;;;0.03;;
45136;SDS011;30894;51.740;19.498;2022-08-01T02:09:34;0.10;;;0.10;;
45136;SDS011;30894;51.740;19.498;2022-08-01T02:12:03;0.10;;;0.10;;
45136;SDS011;30894;51.740;19.498;2022-08-01T02:14:31;0.00;;;0.00;;
45136;SDS011;30894;51.740;19.498;2022-08-01T02:17:00;0.10;;;0.10;;
45136;SDS011;30894;51.740;19.498;2022-08-01T02:19:29;0.10;;;0.10;;
45136;SDS011;30894;51.740;19.498;2022-08-01T02:21:56;0.10;;;0.10;;
45136;SDS011;30894;51.740;19.498;2022-08-01T02:27:25;0.10;;;0.10;;
45136;SDS011;30894;51.740;19.498;2022-08-01T02:30:04;0.10;;;0.10;;
45136;SDS011;30894;51.740;19.498;2022-08-01T02:32:43;0.10;;;0.10;;
45136;SDS011;30894;51.740;19.498;2022-08-01T02:35:13;0.00;;;0.00;;
45136;SDS011;30894;51.740;19.498;2022-08-01T02:37:54;0.10;;;0.10;;
45136;SDS011;30894;51.740;19.498;2022-08-01T02:40:24;0.10;;;0.10;;
45136;SDS011;30894;51.740;19.498;2022-08-01T02:42:54;0.00;;;0.00;;
45136;SDS011;30894;51.740;19.498;2022-08-01T02:45:24;0.00;;;0.00;;
45136;SDS011;30894;51.740;19.498;2022-08-01T02:47:54;0.10;;;0.10;;
45136;SDS011;30894;51.740;19.498;2022-08-01T02:50:24;0.10;;;0.10;;
45136;SDS011;30894;51.740;19.498;2022-08-01T02:52:53;0.10;;;0.10;;
45136;SDS011;30894;51.740;19.498;2022-08-01T02:55:23;0.10;;;0.10;;
45136;SDS011;30894;51.740;19.498;2022-08-01T02:57:50;0.10;;;0.10;;
45136;SDS011;30894;51.740;19.498;2022-08-01T03:00:19;0.10;;;0.10;;
45136;SDS011;30894;51.740;19.498;2022-08-01T03:02:45;0.00;;;0.00;;
45136;SDS011;30894;51.740;19.498;2022-08-01T03:05:14;0.10;;;0.10;;
45136;SDS011;30894;51.740;19.498;2022-08-01T03:07:41;0.10;;;0.10;;
45136;SDS011;30894;51.740;19.498;2022-08-01T03:10:08;0.00;;;0.00;;
45136;SDS011;30894;51.740;19.498;2022-08-01T03:12:35;0.00;;;0.00;;
45136;SDS011;30894;51.740;19.498;2022-08-01T03:15:03;0.00;;;0.00;;
45136;SDS011;30894;51.740;19.498;2022-08-01T03:17:31;0.10;;;0.10;;
45136;SDS011;30894;51.740;19.498;2022-08-01T03:19:59;0.10;;;0.10;;
45136;SDS011;30894;51.740;19.498;2022-08-01T03:22:29;0.00;;;0.00;;
45136;SDS011;30894;51.740;19.498;2022-08-01T03:24:56;0.10;;;0.10;;
45136;SDS011;30894;51.740;19.498;2022-08-01T03:27:24;0.00;;;0.00;;
45136;SDS011;30894;51.740;19.498;2022-08-01T03:29:51;0.10;;;0.10;;
45136;SDS011;30894;51.740;19.498;2022-08-01T03:32:20;0.10;;;0.10;;
45136;SDS011;30894;51.740;19.498;2022-08-01T03:34:47;0.10;;;0.10;;
45136;SDS011;30894;51.740;19.498;2022-08-01T03:40:09;0.10;;;0.10;;
45136;SDS011;30894;51.740;19.498;2022-08-01T03:43:04;0.00;;;0.00;;
45136;SDS011;30894;51.740;19.498;2022-08-01T03:45:36;0.10;;;0.10;;
45136;SDS011;30894;51.740;19.498;2022-08-01T03:48:09;0.10;;;0.10;;
45136;SDS011;30894;51.740;19.498;2022-08-01T03:50:39;0.10;;;0.10;;
45136;SDS011;30894;51.740;19.498;2022-08-01T03:53:10;0.10;;;0.10;;
45136;SDS011;30894;51.740;19.498;2022-08-01T03:55:37;0.00;;;0.00;;
45136;SDS011;30894;51.740;19.498;2022-08-01T03:58:06;0.10;;;0.10;;
45136;SDS011;30894;51.740;19.498;2022-08-01T04:00:35;0.10;;;0.10;;
45136;SDS011;30894;51.740;19.498;2022-08-01T04:03:08;0.10;;;0.10;;
45136;SDS011;30894;51.740;19.498;2022-08-01T04:05:35;0.10;;;0.10;;
45136;SDS011;30894;51.740;19.498;2022-08-01T04:08:01;0.00;;;0.00;;
45136;SDS011;30894;51.740;19.498;2022-08-01T04:10:28;0.10;;;0.10;;
45136;SDS011;30894;51.740;19.498;2022-08-01T04:12:54;0.10;;;0.10;;
45136;SDS011;30894;51.740;19.498;2022-08-01T04:15:20;0.10;;;0.10;;
45136;SDS011;30894;51.740;19.498;2022-08-01T04:17:46;0.10;;;0.10;;
45136;SDS011;30894;51.740;19.498;2022-08-01T04:20:14;0.10;;;0.10;;
45136;SDS011;30894;51.740;19.498;2022-08-01T04:22:40;0.10;;;0.10;;
45136;SDS011;30894;51.740;19.498;2022-08-01T04:25:09;0.10;;;0.10;;
45136;SDS011;30894;51.740;19.498;2022-08-01T04:27:44;0.10;;;0.10;;
45136;SDS011;30894;51.740;19.498;2022-08-01T04:30:13;0.10;;;0.10;;
45136;SDS011;30894;51.740;19.498;2022-08-01T04:32:42;0.10;;;0.10;;
45136;SDS011;30894;51.740;19.498;2022-08-01T04:35:11;0.10;;;0.10;;
45136;SDS011;30894;51.740;19.498;2022-08-01T04:37:41;0.10;;;0.10;;
45136;SDS011;30894;51.740;19.498;2022-08-01T04:40:09;0.10;;;0.10;;
45136;SDS011;30894;51.740;19.498;2022-08-01T04:42:37;0.10;;;0.10;;
45136;SDS011;30894;51.740;19.498;2022-08-01T04:45:05;0.10;;;0.10;;
45136;SDS011;30894;51.740;19.498;2022-08-01T04:47:33;0.10;;;0.10;;
45136;SDS011;30894;51.740;19.498;2022-08-01T04:50:04;0.10;;;0.10;;
45136;SDS011;30894;51.740;19.498;2022-08-01T04:52:34;0.10;;;0.10;;
45136;SDS011;30894;51.740;19.498;2022-08-01T04:55:02;0.10;;;0.10;;
45136;SDS011;30894;51.740;19.498;2022-08-01T04:57:32;0.10;;;0.10;;
45136;SDS011;30894;51.740;19.498;2022-08-01T05:00:07;0.10;;;0.10;;
45136;SDS011;30894;51.740;19.498;2022-08-01T05:02:35;0.10;;;0.10;;
45136;SDS011;30894;51.740;19.498;2022-08-01T05:05:01;0.10;;;0.10;;
45136;SDS011;30894;51.740;19.498;2022-08-01T05:07:26;0.10;;;0.10;;
45136;SDS011;30894;51.740;19.498;2022-08-01T05:09:52;0.10;;;0.10;;
45136;SDS011;30894;51.740;19.498;2022-08-01T05:12:18;0.10;;;0.10;;
45136;SDS011;30894;51.740;19.498;2022-08-01T05:14:45;0.10;;;0.10;;
45136;SDS011;30894;51.740;19.498;2022-08-01T05:17:12;0.10;;;0.10;;
45136;SDS011;30894;51.740;19.498;2022-08-01T05:19:38;0.10;;;0.10;;
45136;SDS011;30894;51.740;19.498;2022-08-01T05:22:08;0.10;;;0.10;;
45136;SDS011;30894;51.740;19.498;2022-08-01T05:24:35;0.10;;;0.10;;
45136;SDS011;30894;51.740;19.498;2022-08-01T05:27:04;0.10;;;0.10;;
45136;SDS011;30894;51.740;19.498;2022-08-01T05:29:31;0.10;;;0.10;;
45136;SDS011;30894;51.740;19.498;2022-08-01T05:31:58;0.10;;;0.10;;
45136;SDS011;30894;51.740;19.498;2022-08-01T05:34:24;0.10;;;0.10;;
45136;SDS011;30894;51.740;19.498;2022-08-01T05:36:51;0.10;;;0.10;;
45136;SDS011;30894;51.740;19.498;2022-08-01T05:39:18;0.10;;;0.10;;
45136;SDS011;30894;51.740;19.498;2022-08-01T05:41:44;0.25;;;0.22;;
45136;SDS011;30894;51.740;19.498;2022-08-01T05:44:11;0.98;;;0.93;;
45136;SDS011;30894;51.740;19.498;2022-08-01T05:46:38;0.73;;;0.73;;
45136;SDS011;30894;51.740;19.498;2022-08-01T05:49:04;1.23;;;1.08;;
45136;SDS011;30894;51.740;19.498;2022-08-01T05:51:30;1.95;;;1.10;;
45136;SDS011;30894;51.740;19.498;2022-08-01T05:53:58;1.63;;;0.98;;
45136;SDS011;30894;51.740;19.498;2022-08-01T05:56:24;2.28;;;1.13;;
45136;SDS011;30894;51.740;19.498;2022-08-01T05:58:51;2.50;;;1.30;;
45136;SDS011;30894;51.740;19.498;2022-08-01T06:01:18;1.25;;;0.93;;
45136;SDS011;30894;51.740;19.498;2022-08-01T06:03:44;1.55;;;1.02;;
45136;SDS011;30894;51.740;19.498;2022-08-01T06:06:10;2.10;;;1.30;;
45136;SDS011;30894;51.740;19.498;2022-08-01T06:08:37;1.20;;;1.10;;
45136;SDS011;30894;51.740;19.498;2022-08-01T06:11:03;2.05;;;0.90;;
45136;SDS011;30894;51.740;19.498;2022-08-01T06:13:29;1.58;;;1.13;;
45136;SDS011;30894;51.740;19.498;2022-08-01T06:15:55;1.27;;;0.85;;
45136;SDS011;30894;51.740;19.498;2022-08-01T06:18:21;0.95;;;0.93;;
45136;SDS011;30894;51.740;19.498;2022-08-01T06:20:47;1.10;;;1.02;;
45136;SDS011;30894;51.740;19.498;2022-08-01T06:23:13;1.05;;;0.90;;
45136;SDS011;30894;51.740;19.498;2022-08-01T06:25:41;0.90;;;0.90;;
45136;SDS011;30894;51.740;19.498;2022-08-01T06:28:08;0.73;;;0.73;;
45136;SDS011;30894;51.740;19.498;2022-08-01T06:30:36;1.45;;;0.90;;
45136;SDS011;30894;51.740;19.498;2022-08-01T06:33:02;1.98;;;0.98;;
45136;SDS011;30894;51.740;19.498;2022-08-01T06:35:28;0.52;;;0.52;;
45136;SDS011;30894;51.740;19.498;2022-08-01T06:37:58;1.25;;;0.93;;
45136;SDS011;30894;51.740;19.498;2022-08-01T06:40:24;1.10;;;0.68;;
45136;SDS011;30894;51.740;19.498;2022-08-01T06:42:50;2.40;;;1.70;;
45136;SDS011;30894;51.740;19.498;2022-08-01T06:45:16;1.60;;;1.25;;
45136;SDS011;30894;51.740;19.498;2022-08-01T06:47:43;1.38;;;1.17;;
45136;SDS011;30894;51.740;19.498;2022-08-01T06:50:10;2.15;;;1.50;;
45136;SDS011;30894;51.740;19.498;2022-08-01T06:52:37;2.58;;;1.45;;
45136;SDS011;30894;51.740;19.498;2022-08-01T06:55:03;2.15;;;1.30;;
45136;SDS011;30894;51.740;19.498;2022-08-01T06:57:31;8.93;;;1.35;;
45136;SDS011;30894;51.740;19.498;2022-08-01T07:00:00;2.97;;;1.00;;
45136;SDS011;30894;51.740;19.498;2022-08-01T07:02:33;3.53;;;1.50;;
45136;SDS011;30894;51.740;19.498;2022-08-01T07:05:01;2.00;;;1.35;;
45136;SDS011;30894;51.740;19.498;2022-08-01T07:07:29;2.88;;;1.75;;
45136;SDS011;30894;51.740;19.498;2022-08-01T07:09:56;2.13;;;1.40;;
45136;SDS011;30894;51.740;19.498;2022-08-01T07:12:22;2.58;;;1.60;;
45136;SDS011;30894;51.740;19.498;2022-08-01T07:14:48;3.88;;;1.88;;
45136;SDS011;30894;51.740;19.498;2022-08-01T07:17:14;1.85;;;1.20;;
45136;SDS011;30894;51.740;19.498;2022-08-01T07:19:40;1.70;;;1.60;;
45136;SDS011;30894;51.740;19.498;2022-08-01T07:22:06;2.83;;;1.83;;
45136;SDS011;30894;51.740;19.498;2022-08-01T07:24:32;2.65;;;1.70;;
45136;SDS011;30894;51.740;19.498;2022-08-01T07:26:59;2.22;;;1.63;;
45136;SDS011;30894;51.740;19.498;2022-08-01T07:29:28;2.22;;;1.50;;
45136;SDS011;30894;51.740;19.498;2022-08-01T07:31:54;4.38;;;1.63;;
45136;SDS011;30894;51.740;19.498;2022-08-01T07:34:22;2.88;;;1.70;;
45136;SDS011;30894;51.740;19.498;2022-08-01T07:36:49;1.95;;;1.52;;
45136;SDS011;30894;51.740;19.498;2022-08-01T07:39:17;4.03;;;1.98;;
45136;SDS011;30894;51.740;19.498;2022-08-01T07:41:45;1.73;;;1.55;;
45136;SDS011;30894;51.740;19.498;2022-08-01T07:44:11;2.60;;;1.92;;
45136;SDS011;30894;51.740;19.498;2022-08-01T07:46:37;2.40;;;1.80;;
45136;SDS011;30894;51.740;19.498;2022-08-01T07:49:03;2.53;;;1.92;;
45136;SDS011;30894;51.740;19.498;2022-08-01T07:51:30;3.20;;;1.70;;
45136;SDS011;30894;51.740;19.498;2022-08-01T07:53:56;2.33;;;1.88;;
45136;SDS011;30894;51.740;19.498;2022-08-01T07:56:22;2.47;;;1.90;;
45136;SDS011;30894;51.740;19.498;2022-08-01T07:58:50;5.75;;;1.73;;
45136;SDS011;30894;51.740;19.498;2022-08-01T08:01:16;5.43;;;1.67;;
45136;SDS011;30894;51.740;19.498;2022-08-01T08:03:43;2.70;;;1.70;;
45136;SDS011;30894;51.740;19.498;2022-08-01T08:06:09;4.60;;;1.63;;
45136;SDS011;30894;51.740;19.498;2022-08-01T08:08:35;2.20;;;1.55;;
45136;SDS011;30894;51.740;19.498;2022-08-01T08:11:01;2.05;;;1.80;;
45136;SDS011;30894;51.740;19.498;2022-08-01T08:13:27;2.00;;;1.50;;
45136;SDS011;30894;51.740;19.498;2022-08-01T08:15:52;1.70;;;1.58;;
45136;SDS011;30894;51.740;19.498;2022-08-01T08:18:21;2.08;;;1.60;;
45136;SDS011;30894;51.740;19.498;2022-08-01T08:20:47;3.53;;;1.40;;
45136;SDS011;30894;51.740;19.498;2022-08-01T08:23:14;1.50;;;1.17;;
45136;SDS011;30894;51.740;19.498;2022-08-01T08:25:58;1.80;;;1.63;;
45136;SDS011;30894;51.740;19.498;2022-08-01T08:28:25;1.48;;;1.20;;
45136;SDS011;30894;51.740;19.498;2022-08-01T08:30:50;1.70;;;1.30;;
45136;SDS011;30894;51.740;19.498;2022-08-01T08:33:18;1.10;;;1.00;;
45136;SDS011;30894;51.740;19.498;2022-08-01T08:35:44;6.35;;;1.10;;
45136;SDS011;30894;51.740;19.498;2022-08-01T08:38:11;4.03;;;1.17;;
45136;SDS011;30894;51.740;19.498;2022-08-01T08:40:37;1.08;;;0.95;;
45136;SDS011;30894;51.740;19.498;2022-08-01T08:43:04;1.35;;;0.93;;
45136;SDS011;30894;51.740;19.498;2022-08-01T08:45:31;3.60;;;0.93;;
45136;SDS011;30894;51.740;19.498;2022-08-01T08:47:58;1.00;;;0.90;;
45136;SDS011;30894;51.740;19.498;2022-08-01T08:50:25;3.78;;;1.10;;
45136;SDS011;30894;51.740;19.498;2022-08-01T08:52:54;1.30;;;1.20;;
45136;SDS011;30894;51.740;19.498;2022-08-01T08:55:21;3.83;;;1.25;;
45136;SDS011;30894;51.740;19.498;2022-08-01T08:57:49;1.27;;;0.88;;
45136;SDS011;30894;51.740;19.498;2022-08-01T09:00:18;3.03;;;1.10;;
45136;SDS011;30894;51.740;19.498;2022-08-01T09:02:47;1.40;;;1.10;;
45136;SDS011;30894;51.740;19.498;2022-08-01T09:05:21;0.77;;;0.77;;
45136;SDS011;30894;51.740;19.498;2022-08-01T09:07:52;1.07;;;0.90;;
45136;SDS011;30894;51.740;19.498;2022-08-01T09:10:19;3.97;;;1.10;;
45136;SDS011;30894;51.740;19.498;2022-08-01T09:15:40;0.93;;;0.90;;
45136;SDS011;30894;51.740;19.498;2022-08-01T09:23:45;4.35;;;1.10;;
45136;SDS011;30894;51.740;19.498;2022-08-01T09:26:19;2.78;;;1.10;;
45136;SDS011;30894;51.740;19.498;2022-08-01T09:28:59;2.00;;;1.27;;
45136;SDS011;30894;51.740;19.498;2022-08-01T09:31:38;1.73;;;1.00;;
45136;SDS011;30894;51.740;19.498;2022-08-01T09:34:09;4.53;;;1.27;;
45136;SDS011;30894;51.740;19.498;2022-08-01T09:36:53;1.48;;;1.20;;
45136;SDS011;30894;51.740;19.498;2022-08-01T09:39:23;2.78;;;1.15;;
45136;SDS011;30894;51.740;19.498;2022-08-01T09:41:54;2.83;;;1.35;;
45136;SDS011;30894;51.740;19.498;2022-08-01T09:44:42;2.92;;;1.40;;
45136;SDS011;30894;51.740;19.498;2022-08-01T09:47:11;0.82;;;0.82;;
45136;SDS011;30894;51.740;19.498;2022-08-01T09:49:39;2.13;;;1.30;;
45136;SDS011;30894;51.740;19.498;2022-08-01T09:52:14;1.17;;;1.08;;
45136;SDS011;30894;51.740;19.498;2022-08-01T09:54:58;1.30;;;1.20;;
45136;SDS011;30894;51.740;19.498;2022-08-01T09:57:28;4.07;;;1.42;;
45136;SDS011;30894;51.740;19.498;2022-08-01T09:59:56;1.20;;;1.10;;
45136;SDS011;30894;51.740;19.498;2022-08-01T10:04:56;1.75;;;1.30;;
45136;SDS011;30894;51.740;19.498;2022-08-01T10:07:22;1.08;;;1.08;;
45136;SDS011;30894;51.740;19.498;2022-08-01T10:09:48;1.60;;;1.50;;
45136;SDS011;30894;51.740;19.498;2022-08-01T10:12:15;1.67;;;1.20;;
45136;SDS011;30894;51.740;19.498;2022-08-01T10:14:46;1.88;;;1.38;;
45136;SDS011;30894;51.740;19.498;2022-08-01T10:17:15;3.45;;;1.30;;
45136;SDS011;30894;51.740;19.498;2022-08-01T10:19:43;1.98;;;1.35;;
45136;SDS011;30894;51.740;19.498;2022-08-01T10:22:14;2.17;;;1.50;;
45136;SDS011;30894;51.740;19.498;2022-08-01T10:24:43;3.55;;;1.30;;
45136;SDS011;30894;51.740;19.498;2022-08-01T10:27:13;1.38;;;1.27;;
45136;SDS011;30894;51.740;19.498;2022-08-01T10:29:42;1.90;;;1.35;;
45136;SDS011;30894;51.740;19.498;2022-08-01T10:32:32;1.30;;;1.20;;
45136;SDS011;30894;51.740;19.498;2022-08-01T10:35:00;1.92;;;1.27;;
45136;SDS011;30894;51.740;19.498;2022-08-01T10:37:30;4.18;;;1.95;;
45136;SDS011;30894;51.740;19.498;2022-08-01T10:40:00;1.33;;;1.10;;
45136;SDS011;30894;51.740;19.498;2022-08-01T10:42:27;2.25;;;1.20;;
45136;SDS011;30894;51.740;19.498;2022-08-01T10:44:53;5.70;;;1.48;;
45136;SDS011;30894;51.740;19.498;2022-08-01T10:47:23;3.58;;;1.70;;
45136;SDS011;30894;51.740;19.498;2022-08-01T10:50:02;3.45;;;1.40;;
45136;SDS011;30894;51.740;19.498;2022-08-01T10:52:39;1.17;;;1.10;;
45136;SDS011;30894;51.740;19.498;2022-08-01T10:55:06;3.05;;;1.58;;
45136;SDS011;30894;51.740;19.498;2022-08-01T10:57:45;2.35;;;1.30;;
45136;SDS011;30894;51.740;19.498;2022-08-01T11:00:17;1.50;;;1.40;;
45136;SDS011;30894;51.740;19.498;2022-08-01T11:02:57;1.30;;;1.17;;
45136;SDS011;30894;51.740;19.498;2022-08-01T11:05:32;1.50;;;1.33;;
45136;SDS011;30894;51.740;19.498;2022-08-01T11:08:03;1.30;;;1.20;;
45136;SDS011;30894;51.740;19.498;2022-08-01T11:10:39;1.45;;;1.30;;
45136;SDS011;30894;51.740;19.498;2022-08-01T11:13:09;2.30;;;1.77;;
45136;SDS011;30894;51.740;19.498;2022-08-01T11:15:39;5.30;;;1.45;;
45136;SDS011;30894;51.740;19.498;2022-08-01T11:20:55;1.35;;;1.25;;
45136;SDS011;30894;51.740;19.498;2022-08-01T11:23:27;1.90;;;1.48;;
45136;SDS011;30894;51.740;19.498;2022-08-01T11:28:21;1.40;;;1.30;;
45136;SDS011;30894;51.740;19.498;2022-08-01T11:30:53;1.67;;;1.58;;
45136;SDS011;30894;51.740;19.498;2022-08-01T11:38:40;2.22;;;1.60;;
45136;SDS011;30894;51.740;19.498;2022-08-01T11:46:44;4.80;;;1.50;;
45136;SDS011;30894;51.740;19.498;2022-08-01T11:49:24;2.85;;;1.33;;
45136;SDS011;30894;51.740;19.498;2022-08-01T11:51:57;2.22;;;1.55;;
45136;SDS011;30894;51.740;19.498;2022-08-01T11:54:46;2.75;;;1.35;;
45136;SDS011;30894;51.740;19.498;2022-08-01T11:59:51;1.67;;;1.33;;
45136;SDS011;30894;51.740;19.498;2022-08-01T12:02:23;3.17;;;1.50;;
45136;SDS011;30894;51.740;19.498;2022-08-01T12:04:53;1.58;;;1.48;;
45136;SDS011;30894;51.740;19.498;2022-08-01T12:07:25;5.95;;;1.60;;
45136;SDS011;30894;51.740;19.498;2022-08-01T12:10:11;2.05;;;1.52;;
45136;SDS011;30894;51.740;19.498;2022-08-01T12:12:43;2.55;;;1.55;;
45136;SDS011;30894;51.740;19.498;2022-08-01T12:15:15;1.58;;;1.40;;
45136;SDS011;30894;51.740;19.498;2022-08-01T12:17:46;1.90;;;1.50;;
45136;SDS011;30894;51.740;19.498;2022-08-01T12:20:19;1.40;;;1.30;;
45136;SDS011;30894;51.740;19.498;2022-08-01T12:22:47;1.40;;;1.27;;
45136;SDS011;30894;51.740;19.498;2022-08-01T12:25:19;3.63;;;1.47;;
45136;SDS011;30894;51.740;19.498;2022-08-01T12:27:45;2.67;;;1.35;;
45136;SDS011;30894;51.740;19.498;2022-08-01T12:30:16;2.25;;;1.30;;
45136;SDS011;30894;51.740;19.498;2022-08-01T12:32:45;1.88;;;1.30;;
45136;SDS011;30894;51.740;19.498;2022-08-01T12:35:19;1.58;;;1.38;;
45136;SDS011;30894;51.740;19.498;2022-08-01T12:37:50;2.70;;;1.20;;
45136;SDS011;30894;51.740;19.498;2022-08-01T12:40:23;2.55;;;1.40;;
45136;SDS011;30894;51.740;19.498;2022-08-01T12:43:06;3.28;;;1.50;;
45136;SDS011;30894;51.740;19.498;2022-08-01T12:45:35;1.33;;;1.23;;
45136;SDS011;30894;51.740;19.498;2022-08-01T12:48:12;1.50;;;1.40;;
45136;SDS011;30894;51.740;19.498;2022-08-01T12:50:41;2.33;;;1.35;;
45136;SDS011;30894;51.740;19.498;2022-08-01T12:53:11;2.28;;;1.40;;
45136;SDS011;30894;51.740;19.498;2022-08-01T12:55:45;3.45;;;1.20;;
45136;SDS011;30894;51.740;19.498;2022-08-01T12:58:16;2.85;;;1.50;;
45136;SDS011;30894;51.740;19.498;2022-08-01T13:00:45;1.40;;;1.30;;
45136;SDS011;30894;51.740;19.498;2022-08-01T13:03:14;2.15;;;1.38;;
45136;SDS011;30894;51.740;19.498;2022-08-01T13:05:46;2.40;;;1.40;;
45136;SDS011;30894;51.740;19.498;2022-08-01T13:11:03;1.92;;;1.60;;
45136;SDS011;30894;51.740;19.498;2022-08-01T13:13:37;1.52;;;1.35;;
45136;SDS011;30894;51.740;19.498;2022-08-01T13:16:06;3.47;;;1.60;;
45136;SDS011;30894;51.740;19.498;2022-08-01T13:18:34;1.85;;;1.73;;
45136;SDS011;30894;51.740;19.498;2022-08-01T13:21:08;6.22;;;1.52;;
45136;SDS011;30894;51.740;19.498;2022-08-01T13:29:13;1.85;;;1.50;;
45136;SDS011;30894;51.740;19.498;2022-08-01T13:31:43;5.15;;;1.67;;
45136;SDS011;30894;51.740;19.498;2022-08-01T13:34:11;2.28;;;1.48;;
45136;SDS011;30894;51.740;19.498;2022-08-01T13:36:38;1.70;;;1.58;;
45136;SDS011;30894;51.740;19.498;2022-08-01T13:39:06;2.25;;;1.63;;
45136;SDS011;30894;51.740;19.498;2022-08-01T13:41:51;1.52;;;1.40;;
45136;SDS011;30894;51.740;19.498;2022-08-01T13:44:17;2.92;;;1.70;;
45136;SDS011;30894;51.740;19.498;2022-08-01T13:46:44;2.13;;;1.60;;
45136;SDS011;30894;51.740;19.498;2022-08-01T13:49:13;1.70;;;1.60;;
45136;SDS011;30894;51.740;19.498;2022-08-01T13:51:39;1.65;;;1.55;;
45136;SDS011;30894;51.740;19.498;2022-08-01T13:54:05;1.73;;;1.63;;
45136;SDS011;30894;51.740;19.498;2022-08-01T13:56:32;3.45;;;2.00;;
45136;SDS011;30894;51.740;19.498;2022-08-01T13:58:58;2.08;;;1.70;;
45136;SDS011;30894;51.740;19.498;2022-08-01T14:01:25;4.40;;;1.80;;
45136;SDS011;30894;51.740;19.498;2022-08-01T14:03:51;1.85;;;1.50;;
45136;SDS011;30894;51.740;19.498;2022-08-01T14:06:17;2.63;;;1.40;;
45136;SDS011;30894;51.740;19.498;2022-08-01T14:08:46;2.05;;;1.48;;
45136;SDS011;30894;51.740;19.498;2022-08-01T14:11:12;1.60;;;1.50;;
45136;SDS011;30894;51.740;19.498;2022-08-01T14:13:38;5.00;;;1.67;;
45136;SDS011;30894;51.740;19.498;2022-08-01T14:16:05;1.70;;;1.38;;
45136;SDS011;30894;51.740;19.498;2022-08-01T14:18:32;2.28;;;1.77;;
45136;SDS011;30894;51.740;19.498;2022-08-01T14:20:58;1.67;;;1.58;;
45136;SDS011;30894;51.740;19.498;2022-08-01T14:23:25;4.63;;;1.60;;
45136;SDS011;30894;51.740;19.498;2022-08-01T14:25:51;1.40;;;1.30;;
45136;SDS011;30894;51.740;19.498;2022-08-01T14:28:18;2.85;;;1.70;;
45136;SDS011;30894;51.740;19.498;2022-08-01T14:30:44;2.45;;;2.10;;
45136;SDS011;30894;51.740;19.498;2022-08-01T14:33:11;2.85;;;1.80;;
45136;SDS011;30894;51.740;19.498;2022-08-01T14:35:38;1.90;;;1.73;;
45136;SDS011;30894;51.740;19.498;2022-08-01T14:38:05;6.18;;;1.65;;
45136;SDS011;30894;51.740;19.498;2022-08-01T14:40:33;3.22;;;1.70;;
45136;SDS011;30894;51.740;19.498;2022-08-01T14:43:00;3.95;;;2.08;;
45136;SDS011;30894;51.740;19.498;2022-08-01T14:45:27;2.25;;;1.75;;
45136;SDS011;30894;51.740;19.498;2022-08-01T14:47:53;6.32;;;1.88;;
45136;SDS011;30894;51.740;19.498;2022-08-01T14:50:21;2.40;;;2.20;;
45136;SDS011;30894;51.740;19.498;2022-08-01T14:52:49;2.80;;;2.13;;
45136;SDS011;30894;51.740;19.498;2022-08-01T14:55:15;2.75;;;2.33;;
45136;SDS011;30894;51.740;19.498;2022-08-01T14:57:41;2.80;;;1.90;;
45136;SDS011;30894;51.740;19.498;2022-08-01T15:00:08;6.82;;;2.35;;
45136;SDS011;30894;51.740;19.498;2022-08-01T15:02:39;3.35;;;2.08;;
45136;SDS011;30894;51.740;19.498;2022-08-01T15:05:05;2.53;;;2.00;;
45136;SDS011;30894;51.740;19.498;2022-08-01T15:07:32;2.78;;;2.40;;
45136;SDS011;30894;51.740;19.498;2022-08-01T15:09:58;3.78;;;1.95;;
45136;SDS011;30894;51.740;19.498;2022-08-01T15:12:24;2.50;;;2.30;;
45136;SDS011;30894;51.740;19.498;2022-08-01T15:14:50;4.22;;;2.72;;
45136;SDS011;30894;51.740;19.498;2022-08-01T15:17:18;6.40;;;2.60;;
45136;SDS011;30894;51.740;19.498;2022-08-01T15:20:00;3.67;;;2.20;;
45136;SDS011;30894;51.740;19.498;2022-08-01T15:22:31;4.68;;;2.30;;
45136;SDS011;30894;51.740;19.498;2022-08-01T15:24:58;3.67;;;2.25;;
45136;SDS011;30894;51.740;19.498;2022-08-01T15:27:26;4.35;;;2.08;;
45136;SDS011;30894;51.740;19.498;2022-08-01T15:29:54;2.45;;;2.15;;
45136;SDS011;30894;51.740;19.498;2022-08-01T15:32:21;2.80;;;2.22;;
45136;SDS011;30894;51.740;19.498;2022-08-01T15:34:48;3.22;;;2.20;;
45136;SDS011;30894;51.740;19.498;2022-08-01T15:37:14;3.60;;;2.30;;
45136;SDS011;30894;51.740;19.498;2022-08-01T15:39:41;3.38;;;2.13;;
45136;SDS011;30894;51.740;19.498;2022-08-01T15:42:08;4.22;;;2.20;;